Terminal Aerodrome Forecast
Issued by NWS

Home | Current Version | Previous Version | Text Only | Print | Product List | Glossary On
Versions: 1 2 3 4 5 6 7 8 9 10 11 12 13 14 15 16 17 18 19 20 21 22 23 24 25 26 27
000
FTUS45 KGJT 290535
TAFEGE
TAF
KEGE 290535Z 2906/3006 VRB03KT P6SM SCT060 BKN090
      TEMPO 2906/2909 BKN060
     FM291300 00000KT P6SM FEW080 BKN200
     FM291800 24005KT P6SM BKN200
     FM300100 11003KT P6SM SCT080 BKN150
      AMD LTD TO CLD VIS AND WIND TIL 291400=

USA.gov is the U.S. government's official web portal to all federal, state and local government web resources and services.